createdAt,value
2022-12-10T00:01:55.428Z,46.67
2022-12-10T00:04:25.382Z,43.77
2022-12-10T00:06:54.785Z,48.13
2022-12-10T00:09:27.449Z,46.37
2022-12-10T00:11:56.631Z,46.53
2022-12-10T00:14:26.558Z,47.73
2022-12-10T00:16:53.706Z,49.27
2022-12-10T00:19:20.832Z,51.33
2022-12-10T00:21:50.268Z,47.73
2022-12-10T00:24:19.686Z,51.03
2022-12-10T00:26:48.952Z,48.97
2022-12-10T00:29:18.186Z,48.97
2022-12-10T00:31:47.846Z,47.23
2022-12-10T00:34:15.023Z,46.80
2022-12-10T00:36:50.067Z,52.13
2022-12-10T00:39:19.730Z,50.23
2022-12-10T00:41:49.712Z,49.80
2022-12-10T00:44:19.686Z,50.30
2022-12-10T00:46:48.864Z,51.63
2022-12-10T00:49:18.261Z,51.53
2022-12-10T00:51:50.425Z,48.90
2022-12-10T00:54:19.734Z,49.47
2022-12-10T00:56:49.849Z,47.83
2022-12-10T00:59:19.138Z,47.80
2022-12-10T01:01:48.817Z,46.73
2022-12-10T01:04:18.523Z,48.53
2022-12-10T01:06:53.934Z,42.87
2022-12-10T01:09:29.488Z,43.50
2022-12-10T01:11:58.665Z,44.63
2022-12-10T01:14:31.892Z,41.23
2022-12-10T01:17:04.308Z,48.03
2022-12-10T01:19:33.423Z,52.20
2022-12-10T01:22:03.749Z,48.07
2022-12-10T01:24:33.755Z,48.47
2022-12-10T01:27:00.874Z,47.80
2022-12-10T01:29:29.015Z,48.83
2022-12-10T01:31:58.220Z,46.63
2022-12-10T01:34:27.965Z,47.10
2022-12-10T01:36:57.597Z,46.33
2022-12-10T01:39:26.061Z,39.90
2022-12-10T01:41:56.778Z,45.80
2022-12-10T01:44:26.195Z,40.77
2022-12-10T01:46:57.660Z,42.90
2022-12-10T01:49:34.812Z,41.20
2022-12-10T01:52:03.155Z,40.33
2022-12-10T01:54:39.352Z,42.40
2022-12-10T01:57:08.589Z,42.97
2022-12-10T01:59:39.360Z,39.33
2022-12-10T02:02:24.678Z,39.50
2022-12-10T02:05:21.170Z,42.93
2022-12-10T02:08:08.895Z,45.30
2022-12-10T02:10:48.141Z,43.30
2022-12-10T02:13:22.239Z,42.73
2022-12-10T02:16:33.962Z,42.90
2022-12-10T02:19:19.850Z,42.17
2022-12-10T02:21:52.884Z,45.53
2022-12-10T02:24:30.224Z,40.77
2022-12-10T02:27:03.527Z,44.33
2022-12-10T02:29:34.458Z,39.67
2022-12-10T02:32:12.501Z,47.87
2022-12-10T02:35:06.227Z,41.83
2022-12-10T02:37:40.350Z,41.73
2022-12-10T02:40:12.350Z,45.07
2022-12-10T02:42:48.327Z,45.10
2022-12-10T02:45:15.788Z,48.30
2022-12-10T02:47:45.788Z,48.80
2022-12-10T02:50:16.379Z,42.90
2022-12-10T02:52:48.267Z,41.63
2022-12-10T02:55:16.094Z,40.57
2022-12-10T02:57:58.190Z,44.00
2022-12-10T03:00:28.230Z,41.23
2022-12-10T03:03:03.944Z,36.23
2022-12-10T03:05:56.090Z,38.63
2022-12-10T03:08:33.855Z,44.80
2022-12-10T03:11:22.660Z,47.90
2022-12-10T03:13:58.588Z,48.70
2022-12-10T03:16:29.587Z,50.47
2022-12-10T03:19:03.560Z,48.77
2022-12-10T03:21:35.484Z,50.43
2022-12-10T03:24:04.572Z,49.20
2022-12-10T03:26:34.495Z,48.97
2022-12-10T03:29:09.067Z,50.00
2022-12-10T03:31:40.545Z,56.60
2022-12-10T03:34:09.917Z,53.50
2022-12-10T03:36:38.982Z,51.83
2022-12-10T03:39:09.087Z,52.57
2022-12-10T03:41:36.306Z,54.73
2022-12-10T03:44:05.903Z,57.77
2022-12-10T03:46:35.759Z,55.00
2022-12-10T03:49:04.235Z,51.00
2022-12-10T03:51:33.942Z,53.70
2022-12-10T03:54:01.063Z,55.73
2022-12-10T03:56:30.264Z,51.27
2022-12-10T03:59:01.835Z,52.63
2022-12-10T04:01:28.944Z,50.80
2022-12-10T04:03:58.457Z,52.20
2022-12-10T04:06:27.895Z,52.03
2022-12-10T04:08:58.901Z,52.33
2022-12-10T04:11:28.601Z,49.63
2022-12-10T04:14:14.321Z,54.00
2022-12-10T04:16:43.689Z,55.23
2022-12-10T04:19:18.040Z,49.93
2022-12-10T04:22:04.475Z,52.10
2022-12-10T04:24:52.699Z,56.90
2022-12-10T04:27:26.981Z,54.57
2022-12-10T04:29:54.986Z,54.13
2022-12-10T04:32:26.464Z,50.87
2022-12-10T04:34:53.625Z,54.07
2022-12-10T04:37:23.627Z,50.00
2022-12-10T04:39:51.422Z,51.33
2022-12-10T04:42:19.613Z,54.13
2022-12-10T04:44:46.726Z,57.47
2022-12-10T04:47:18.493Z,56.67
2022-12-10T04:49:48.307Z,54.60
2022-12-10T04:52:16.810Z,56.90
2022-12-10T04:54:46.661Z,61.00
2022-12-10T04:57:16.370Z,60.33
2022-12-10T04:59:44.225Z,63.37
2022-12-10T05:02:11.721Z,66.97
2022-12-10T05:04:39.006Z,57.70
2022-12-10T05:07:08.615Z,55.10
2022-12-10T05:09:36.682Z,49.57
2022-12-10T05:12:06.205Z,57.07
2022-12-10T05:14:33.558Z,59.37
2022-12-10T05:17:00.852Z,57.50
2022-12-10T05:19:30.110Z,59.07
2022-12-10T05:22:15.811Z,55.27
2022-12-10T05:24:42.888Z,48.43
2022-12-10T05:27:12.077Z,60.87
2022-12-10T05:29:39.304Z,57.33
2022-12-10T05:32:08.687Z,64.83
2022-12-10T05:34:37.917Z,61.13
2022-12-10T05:37:05.089Z,59.00
2022-12-10T05:39:34.535Z,57.73
2022-12-10T05:42:04.002Z,68.83
2022-12-10T05:44:35.628Z,64.00
2022-12-10T05:47:04.880Z,60.20
2022-12-10T05:49:32.401Z,61.20
2022-12-10T05:52:02.054Z,61.23
2022-12-10T05:54:29.191Z,61.40
2022-12-10T05:56:56.326Z,52.07
2022-12-10T05:59:28.730Z,56.67
2022-12-10T06:01:55.849Z,58.30
2022-12-10T06:04:25.053Z,59.17
2022-12-10T06:06:52.236Z,64.83
2022-12-10T06:09:24.349Z,65.03
2022-12-10T06:11:54.057Z,62.33
2022-12-10T06:14:23.197Z,60.70
2022-12-10T06:16:55.324Z,62.67
2022-12-10T06:19:22.374Z,62.50
2022-12-10T06:21:51.892Z,59.37
2022-12-10T06:24:21.330Z,60.47
2022-12-10T06:26:55.500Z,62.20
2022-12-10T06:29:25.224Z,61.87
2022-12-10T06:31:54.611Z,57.53
2022-12-10T06:34:23.981Z,66.07
2022-12-10T06:36:55.623Z,64.90
2022-12-10T06:39:22.868Z,63.50
2022-12-10T06:41:50.193Z,51.57
2022-12-10T06:44:18.049Z,59.27
2022-12-10T06:46:45.242Z,60.30
2022-12-10T06:49:14.594Z,61.93
2022-12-10T06:51:43.830Z,62.13
2022-12-10T06:54:13.431Z,64.00
2022-12-10T06:56:40.565Z,65.47
2022-12-10T06:59:09.830Z,69.90
2022-12-10T07:01:40.961Z,68.27
2022-12-10T07:04:11.908Z,68.30
2022-12-10T07:06:43.900Z,68.30
2022-12-10T07:09:13.641Z,65.20
2022-12-10T07:11:40.921Z,67.50
2022-12-10T07:14:16.281Z,73.43
2022-12-10T07:16:45.750Z,72.17
2022-12-10T07:19:15.759Z,75.83
2022-12-10T07:21:46.965Z,72.50
2022-12-10T07:24:20.019Z,73.40
2022-12-10T07:26:49.746Z,71.10
2022-12-10T07:29:19.979Z,78.50
2022-12-10T07:31:49.147Z,71.97
2022-12-10T07:34:18.688Z,81.00
2022-12-10T07:36:45.828Z,74.37
2022-12-10T07:39:18.604Z,78.80
2022-12-10T07:41:53.265Z,80.67
2022-12-10T07:44:25.054Z,79.73
2022-12-10T07:46:55.273Z,78.03
2022-12-10T07:49:22.450Z,82.13
2022-12-10T07:51:54.513Z,81.53
2022-12-10T07:54:21.668Z,83.80
2022-12-10T07:56:51.259Z,84.77
2022-12-10T07:59:20.865Z,86.93
2022-12-10T08:01:50.681Z,81.57
2022-12-10T08:04:20.243Z,74.90
2022-12-10T08:06:48.578Z,67.50
2022-12-10T08:09:22.833Z,59.60
2022-12-10T08:11:53.273Z,60.87
2022-12-10T08:14:22.702Z,67.77
2022-12-10T08:16:49.792Z,68.60
2022-12-10T08:19:22.837Z,66.10
2022-12-10T08:21:54.233Z,68.83
2022-12-10T08:24:21.393Z,69.60
2022-12-10T08:26:48.779Z,68.10
2022-12-10T08:29:15.871Z,60.67
2022-12-10T08:31:43.031Z,67.73
2022-12-10T08:34:15.847Z,64.77
2022-12-10T08:36:46.284Z,63.40
2022-12-10T08:39:18.873Z,68.47
2022-12-10T08:41:47.984Z,63.13
2022-12-10T08:44:15.223Z,65.20
2022-12-10T08:46:47.136Z,61.57
2022-12-10T08:49:14.280Z,65.03
2022-12-10T08:51:41.437Z,60.87
2022-12-10T08:54:08.808Z,57.17
2022-12-10T08:56:36.371Z,56.50
2022-12-10T08:59:09.492Z,53.60
2022-12-10T09:01:41.651Z,54.93
2022-12-10T09:04:11.362Z,54.03
2022-12-10T09:06:42.853Z,55.90
2022-12-10T09:09:12.035Z,65.10
2022-12-10T09:11:39.165Z,51.97
2022-12-10T09:14:06.374Z,51.93
2022-12-10T09:16:37.217Z,51.10
2022-12-10T09:19:07.264Z,50.50
2022-12-10T09:21:39.225Z,53.30
2022-12-10T09:24:10.285Z,55.30
2022-12-10T09:26:40.434Z,53.33
2022-12-10T09:29:12.135Z,55.90
2022-12-10T09:31:41.443Z,54.70
2022-12-10T09:34:08.570Z,56.00
2022-12-10T09:36:38.318Z,55.87
2022-12-10T09:39:10.752Z,49.53
2022-12-10T09:42:04.784Z,52.93
2022-12-10T09:44:50.895Z,55.80
2022-12-10T09:47:18.311Z,56.23
2022-12-10T09:50:13.744Z,48.67
2022-12-10T09:52:45.623Z,50.70
2022-12-10T09:55:25.216Z,49.70
2022-12-10T09:57:57.336Z,45.00
2022-12-10T10:00:33.537Z,47.93
2022-12-10T10:03:01.660Z,45.27
2022-12-10T10:05:35.586Z,49.57
2022-12-10T10:08:05.233Z,42.60
2022-12-10T10:10:35.603Z,46.20
2022-12-10T10:13:19.341Z,44.87
2022-12-10T10:15:46.956Z,46.03
2022-12-10T10:18:16.019Z,43.07
2022-12-10T10:20:43.757Z,47.07
2022-12-10T10:23:16.089Z,40.90
2022-12-10T10:25:48.545Z,44.70
2022-12-10T10:28:21.040Z,47.13
2022-12-10T10:30:52.901Z,46.47
2022-12-10T10:33:22.374Z,46.97
2022-12-10T10:35:57.885Z,48.60
2022-12-10T10:38:30.409Z,44.47
2022-12-10T10:41:03.261Z,46.30
2022-12-10T10:43:34.140Z,42.00
2022-12-10T10:46:07.469Z,49.43
2022-12-10T10:48:40.180Z,49.57
2022-12-10T10:51:25.606Z,44.27
2022-12-10T10:53:56.501Z,54.00
2022-12-10T10:56:32.953Z,51.47
2022-12-10T10:59:05.123Z,47.23
2022-12-10T11:01:53.061Z,50.20
2022-12-10T11:04:24.102Z,55.30
2022-12-10T11:06:54.980Z,47.87
2022-12-10T11:09:34.494Z,50.57
2022-12-10T11:12:04.955Z,53.43
2022-12-10T11:14:44.645Z,58.27
2022-12-10T11:17:11.694Z,54.43
2022-12-10T11:20:13.235Z,51.93
2022-12-10T11:22:53.000Z,47.60
2022-12-10T11:25:27.812Z,50.43
2022-12-10T11:28:07.547Z,51.37
2022-12-10T11:30:43.491Z,53.80
2022-12-10T11:33:28.554Z,51.40
2022-12-10T11:36:19.027Z,51.80
2022-12-10T11:39:13.559Z,54.20
2022-12-10T11:42:00.075Z,50.77
2022-12-10T11:44:41.252Z,51.60
2022-12-10T11:47:28.815Z,49.57
2022-12-10T11:50:16.754Z,55.10
2022-12-10T11:52:49.029Z,51.60
2022-12-10T11:55:47.453Z,51.87
2022-12-10T11:58:33.433Z,52.37
2022-12-10T12:01:30.515Z,43.83
2022-12-10T12:04:31.084Z,48.30
2022-12-10T12:07:21.743Z,44.20
2022-12-10T12:09:58.015Z,51.07
2022-12-10T12:12:58.542Z,51.33
2022-12-10T12:15:44.698Z,52.80
2022-12-10T12:18:26.594Z,49.10
2022-12-10T12:21:00.206Z,46.93
2022-12-10T12:23:27.278Z,57.73
2022-12-10T12:26:08.886Z,50.53
2022-12-10T12:28:51.391Z,48.97
2022-12-10T12:31:38.546Z,49.60
2022-12-10T12:34:26.994Z,50.97
2022-12-10T12:36:56.465Z,53.33
2022-12-10T12:39:59.966Z,52.07
2022-12-10T12:42:50.122Z,52.00
2022-12-10T12:45:40.963Z,48.50
2022-12-10T12:48:32.123Z,49.67
2022-12-10T12:51:10.178Z,49.33
2022-12-10T12:53:39.795Z,54.50
2022-12-10T12:56:19.048Z,49.27
2022-12-10T12:59:10.814Z,51.13
2022-12-10T13:01:57.193Z,52.20
2022-12-10T13:04:27.654Z,51.53
2022-12-10T13:07:18.873Z,47.50
2022-12-10T13:09:50.045Z,46.83
2022-12-10T13:12:31.225Z,45.43
2022-12-10T13:15:20.909Z,47.57
2022-12-10T13:18:05.663Z,45.67
2022-12-10T13:20:46.349Z,48.30
2022-12-10T13:23:24.614Z,45.30
2022-12-10T13:25:54.290Z,45.40
2022-12-10T13:28:27.282Z,39.80
2022-12-10T13:31:16.935Z,44.83
2022-12-10T13:33:48.478Z,44.90
2022-12-10T13:36:30.889Z,45.40
2022-12-10T13:39:04.248Z,50.53
2022-12-10T13:42:00.556Z,43.20
2022-12-10T13:44:49.714Z,44.10
2022-12-10T13:47:44.535Z,44.50
2022-12-10T13:50:42.787Z,47.00
2022-12-10T13:53:41.961Z,48.03
2022-12-10T13:56:39.134Z,44.53
2022-12-10T13:59:28.284Z,46.90
2022-12-10T14:02:27.007Z,45.27
2022-12-10T14:05:02.633Z,45.53
2022-12-10T14:07:29.868Z,48.07
2022-12-10T14:09:59.329Z,51.60
2022-12-10T14:12:35.385Z,43.97
2022-12-10T14:15:07.599Z,45.60
2022-12-10T14:17:42.131Z,45.13
2022-12-10T14:20:15.772Z,49.77
2022-12-10T14:22:48.663Z,45.10
2022-12-10T14:25:22.960Z,42.67
2022-12-10T14:27:52.239Z,52.50
2022-12-10T14:30:23.312Z,49.03
2022-12-10T14:32:54.920Z,47.97
2022-12-10T14:35:25.998Z,48.93
2022-12-10T14:37:59.306Z,51.13
2022-12-10T14:40:55.043Z,50.77
2022-12-10T14:43:29.972Z,50.43
2022-12-10T14:46:00.211Z,52.33
2022-12-10T14:48:29.666Z,51.83
2022-12-10T14:51:14.976Z,48.90
2022-12-10T14:53:50.339Z,50.00
2022-12-10T14:56:31.677Z,48.70
2022-12-10T14:59:26.415Z,52.90
2022-12-10T15:02:02.705Z,46.10
2022-12-10T15:04:44.879Z,46.30
2022-12-10T15:07:18.374Z,47.33
2022-12-10T15:09:49.947Z,45.33
2022-12-10T15:12:45.199Z,45.40
2022-12-10T15:15:19.062Z,44.23
2022-12-10T15:17:59.038Z,47.30
2022-12-10T15:20:36.985Z,49.70
2022-12-10T15:23:31.758Z,49.37
2022-12-10T15:26:01.113Z,50.93
2022-12-10T15:28:39.642Z,44.23
2022-12-10T15:31:25.403Z,48.43
2022-12-10T15:34:09.538Z,44.50
2022-12-10T15:36:58.347Z,46.93
2022-12-10T15:39:50.004Z,47.17
2022-12-10T15:42:45.478Z,52.87
2022-12-10T15:45:30.954Z,48.17
2022-12-10T15:47:59.715Z,53.33
2022-12-10T15:50:30.201Z,44.97
2022-12-10T15:52:57.378Z,47.17
2022-12-10T15:55:27.411Z,47.27
2022-12-10T15:57:56.771Z,51.37
2022-12-10T16:00:26.687Z,47.87
2022-12-10T16:03:00.294Z,48.27
2022-12-10T16:05:29.643Z,52.13
2022-12-10T16:08:00.793Z,50.03
2022-12-10T16:10:33.921Z,49.17
2022-12-10T16:13:08.990Z,46.53
2022-12-10T16:15:44.923Z,43.93
2022-12-10T16:18:14.543Z,47.47
2022-12-10T16:20:42.445Z,44.57
2022-12-10T16:23:09.605Z,43.07
2022-12-10T16:25:38.507Z,42.37
2022-12-10T16:28:11.857Z,42.23
2022-12-10T16:30:49.959Z,46.13
2022-12-10T16:33:21.078Z,46.53
2022-12-10T16:35:54.730Z,46.97
2022-12-10T16:38:22.643Z,44.40
2022-12-10T16:40:52.275Z,43.63
2022-12-10T16:43:26.400Z,42.83
2022-12-10T16:45:55.260Z,42.40
2022-12-10T16:48:22.950Z,49.90
2022-12-10T16:50:52.373Z,39.03
2022-12-10T16:53:24.340Z,40.30
2022-12-10T16:55:54.702Z,42.40
2022-12-10T16:58:23.336Z,48.47
2022-12-10T17:00:55.142Z,45.70
2022-12-10T17:03:29.691Z,48.20
2022-12-10T17:05:59.596Z,42.70
2022-12-10T17:08:28.686Z,43.73
2022-12-10T17:11:17.615Z,49.33
2022-12-10T17:13:47.233Z,51.13
2022-12-10T17:16:19.995Z,44.67
2022-12-10T17:18:49.582Z,45.27
2022-12-10T17:21:16.855Z,46.10
2022-12-10T17:23:46.308Z,48.43
2022-12-10T17:26:29.465Z,47.30
2022-12-10T17:29:05.877Z,45.33
2022-12-10T17:31:33.136Z,48.03
2022-12-10T17:34:02.940Z,47.87
2022-12-10T17:36:30.080Z,38.97
2022-12-10T17:38:59.994Z,39.13
2022-12-10T17:41:27.098Z,43.47
2022-12-10T17:43:56.646Z,46.27
2022-12-10T17:46:25.732Z,47.97
2022-12-10T17:48:55.502Z,41.70
2022-12-10T17:51:25.738Z,46.00
2022-12-10T17:53:55.289Z,49.10
2022-12-10T17:56:25.818Z,39.50
2022-12-10T17:58:55.553Z,41.87
2022-12-10T18:01:23.848Z,42.87
2022-12-10T18:03:55.440Z,44.00
2022-12-10T18:06:30.296Z,41.80
2022-12-10T18:09:00.314Z,47.23
2022-12-10T18:11:34.388Z,46.60
2022-12-10T18:14:08.800Z,41.77
2022-12-10T18:16:38.766Z,39.00
2022-12-10T18:19:12.813Z,42.63
2022-12-10T18:21:39.964Z,44.60
2022-12-10T18:24:10.102Z,42.83
2022-12-10T18:26:37.319Z,40.03
2022-12-10T18:29:04.815Z,44.23
2022-12-10T18:31:35.507Z,39.03
2022-12-10T18:34:07.745Z,41.67
2022-12-10T18:36:37.964Z,39.03
2022-12-10T18:39:13.963Z,40.00
2022-12-10T18:41:41.124Z,40.87
2022-12-10T18:44:10.709Z,41.57
2022-12-10T18:46:40.475Z,43.90
2022-12-10T18:49:07.762Z,41.27
2022-12-10T18:51:37.155Z,40.60
2022-12-10T18:54:09.805Z,39.53
2022-12-10T18:56:39.328Z,38.57
2022-12-10T18:59:12.812Z,37.47
2022-12-10T19:01:40.160Z,38.97
2022-12-10T19:04:07.749Z,39.33
2022-12-10T19:06:35.033Z,39.80
2022-12-10T19:09:19.409Z,34.83
2022-12-10T19:11:51.919Z,41.50
2022-12-10T19:14:20.811Z,35.50
2022-12-10T19:16:51.296Z,35.13
2022-12-10T19:19:23.541Z,38.63
2022-12-10T19:21:50.644Z,37.50
2022-12-10T19:24:17.877Z,41.23
2022-12-10T19:26:47.615Z,33.70
2022-12-10T19:29:23.577Z,33.30
2022-12-10T19:31:51.211Z,33.20
2022-12-10T19:34:20.043Z,36.17
2022-12-10T19:36:52.191Z,36.47
2022-12-10T19:39:23.884Z,36.17
2022-12-10T19:41:51.930Z,39.07
2022-12-10T19:44:21.875Z,34.57
2022-12-10T19:46:50.162Z,33.23
2022-12-10T19:49:18.819Z,37.00
2022-12-10T19:51:46.125Z,34.37
2022-12-10T19:54:15.944Z,31.17
2022-12-10T19:56:46.045Z,33.60
2022-12-10T19:59:16.538Z,33.87
2022-12-10T20:01:44.400Z,33.03
2022-12-10T20:04:13.522Z,38.33
2022-12-10T20:06:42.904Z,42.20
2022-12-10T20:09:23.182Z,38.87
2022-12-10T20:11:50.956Z,34.50
2022-12-10T20:14:18.756Z,37.57
2022-12-10T20:16:46.960Z,32.23
2022-12-10T20:19:18.243Z,31.70
2022-12-10T20:21:45.972Z,35.53
2022-12-10T20:24:13.757Z,38.57
2022-12-10T20:26:44.091Z,36.73
2022-12-10T20:29:27.954Z,32.10
2022-12-10T20:31:58.504Z,31.10
2022-12-10T20:34:27.827Z,32.80
2022-12-10T20:36:54.919Z,30.80
2022-12-10T20:39:24.908Z,31.17
2022-12-10T20:41:57.132Z,32.13
2022-12-10T20:44:27.991Z,34.27
2022-12-10T20:46:56.484Z,29.03
2022-12-10T20:49:25.256Z,32.83
2022-12-10T20:51:55.290Z,29.80
2022-12-10T20:54:27.200Z,26.30
2022-12-10T20:56:58.069Z,32.97
2022-12-10T20:59:34.535Z,27.73
2022-12-10T21:02:04.425Z,29.97
2022-12-10T21:04:31.583Z,28.60
2022-12-10T21:06:58.709Z,30.03
2022-12-10T21:09:25.825Z,27.10
2022-12-10T21:11:53.038Z,32.50
2022-12-10T21:14:51.692Z,30.07
2022-12-10T21:17:07.249Z,29.80
2022-12-10T21:19:36.706Z,28.23
2022-12-10T21:22:04.220Z,28.67
2022-12-10T21:24:34.638Z,31.90
2022-12-10T21:27:03.901Z,31.83
2022-12-10T21:29:31.258Z,26.47
2022-12-10T21:32:00.817Z,30.07
2022-12-10T21:34:30.321Z,30.30
2022-12-10T21:36:57.461Z,29.60
2022-12-10T21:39:25.516Z,33.63
2022-12-10T21:42:13.637Z,28.83
2022-12-10T21:44:42.947Z,27.47
2022-12-10T21:47:13.401Z,29.20
2022-12-10T21:49:40.605Z,26.03
2022-12-10T21:52:07.879Z,26.97
2022-12-10T21:54:37.399Z,32.30
2022-12-10T21:57:08.942Z,28.43
2022-12-10T21:59:36.102Z,30.03
2022-12-10T22:02:09.413Z,28.00
2022-12-10T22:04:37.758Z,29.90
2022-12-10T22:07:04.901Z,27.47
2022-12-10T22:09:32.067Z,30.70
2022-12-10T22:12:03.420Z,27.87
2022-12-10T22:14:32.874Z,28.30
2022-12-10T22:17:03.541Z,26.57
2022-12-10T22:19:32.696Z,25.27
2022-12-10T22:21:59.794Z,26.23
2022-12-10T22:24:27.199Z,27.83
2022-12-10T22:26:54.539Z,32.23
2022-12-10T22:29:24.776Z,33.43
2022-12-10T22:31:52.379Z,35.20
2022-12-10T22:34:26.506Z,28.77
2022-12-10T22:36:57.110Z,30.50
2022-12-10T22:39:27.748Z,30.27
2022-12-10T22:41:54.856Z,31.70
2022-12-10T22:44:21.991Z,30.40
2022-12-10T22:46:55.320Z,26.57
2022-12-10T22:49:24.714Z,29.13
2022-12-10T22:51:51.878Z,25.27
2022-12-10T22:54:23.862Z,24.77
2022-12-10T22:56:53.992Z,27.10
2022-12-10T22:59:21.050Z,26.17
2022-12-10T23:01:50.478Z,26.80
2022-12-10T23:04:17.615Z,25.70
2022-12-10T23:06:47.030Z,24.53
2022-12-10T23:09:14.186Z,22.97
2022-12-10T23:12:03.438Z,23.50
2022-12-10T23:14:35.567Z,20.50
2022-12-10T23:17:05.382Z,24.87
2022-12-10T23:19:33.183Z,21.97
2022-12-10T23:22:00.303Z,23.10
2022-12-10T23:24:29.869Z,23.27
2022-12-10T23:26:56.953Z,22.93
2022-12-10T23:29:24.031Z,23.47
2022-12-10T23:31:51.221Z,24.17
2022-12-10T23:34:18.385Z,21.03
2022-12-10T23:36:45.541Z,21.93
2022-12-10T23:39:12.668Z,24.70
2022-12-10T23:41:39.733Z,26.27
2022-12-10T23:44:14.311Z,23.13
2022-12-10T23:46:41.369Z,23.73
2022-12-10T23:49:08.487Z,22.93
2022-12-10T23:51:37.929Z,20.33
2022-12-10T23:54:07.922Z,23.57
2022-12-10T23:56:37.817Z,22.00
2022-12-10T23:59:05.039Z,23.03
